Time;durP1;ratioP1;P1;durP2;ratioP2;P2;SDS_P1;SDS_P2;PMS_P1;PMS_P2;Temp;Humidity;BMP_temperature;BMP_pressure;BME280_temperature;BME280_humidity;BME280_pressure;Samples;Min_cycle;Max_cycle;Signal;HPM_P1;HPM_P2
2021/12/04 00:00:28;;;;;;;346.23;109.28;;;-3.80;99.90;;;-4.24;67.53;98191.69;6041663;23;20019;-82
2021/12/04 00:03:03;;;;;;;333.70;112.35;;;-3.90;99.90;;;-4.32;67.42;98188.38;6053203;23;20090;-82
2021/12/04 00:05:29;;;;;;;313.48;105.85;;;-3.90;99.90;;;-4.41;67.25;98185.03;6044770;23;20050;-82
2021/12/04 00:07:56;;;;;;;290.35;93.93;;;-4.00;99.90;;;-4.48;67.56;98192.94;6041325;23;20023;-82
2021/12/04 00:10:27;;;;;;;273.55;91.30;;;-4.10;99.90;;;-4.50;67.00;98188.84;6041097;23;20019;-83
2021/12/04 00:12:53;;;;;;;252.27;86.05;;;-4.10;99.90;;;-4.56;67.14;98184.31;6053216;23;20407;-82
2021/12/04 00:15:19;;;;;;;234.95;81.88;;;-4.10;99.90;;;-4.59;67.75;98170.47;6041544;23;20045;-81
2021/12/04 00:17:45;;;;;;;220.23;75.13;;;-4.20;99.90;;;-4.62;67.71;98173.50;6017451;23;20098;-82
2021/12/04 00:20:13;;;;;;;223.55;80.40;;;-4.20;99.90;;;-4.63;67.88;98163.09;6040442;23;20098;-81
2021/12/04 00:22:39;;;;;;;235.02;77.53;;;-4.30;99.90;;;-4.69;67.93;98169.97;6016614;23;20023;-81
2021/12/04 00:25:06;;;;;;;264.27;93.70;;;-4.30;99.90;;;-4.73;67.84;98168.72;6041889;23;20023;-82
2021/12/04 00:27:32;;;;;;;233.40;80.18;;;-4.30;99.90;;;-4.70;67.49;98172.81;6019281;23;20025;-82
2021/12/04 00:29:58;;;;;;;246.20;83.55;;;-4.30;99.90;;;-4.79;67.55;98177.41;6017680;23;20423;-82
2021/12/04 00:32:32;;;;;;;259.55;88.95;;;-4.40;99.90;;;-4.87;67.32;98180.19;6039971;23;20046;-82
2021/12/04 00:35:09;;;;;;;260.75;82.90;;;-4.50;99.90;;;-4.91;67.88;98171.00;6070298;23;20087;-82
2021/12/04 00:51:15;;;;;;;159.88;59.58;;;-4.70;99.90;;;-5.11;68.02;98162.91;6055246;23;20022;-82
2021/12/04 00:53:42;;;;;;;173.25;62.38;;;-4.70;99.90;;;-5.13;68.12;98178.94;6017681;23;20022;-82
2021/12/04 00:56:08;;;;;;;183.40;62.75;;;-4.70;99.90;;;-5.12;68.05;98172.63;6017003;23;20610;-82
2021/12/04 00:58:35;;;;;;;168.55;62.58;;;-4.80;99.90;;;-5.13;68.23;98162.25;6018002;23;20632;-82
2021/12/04 01:01:01;;;;;;;154.32;62.53;;;-4.80;99.90;;;-5.13;68.17;98168.38;6040576;23;20044;-82
2021/12/04 01:03:27;;;;;;;195.38;72.20;;;-4.80;99.90;;;-5.12;68.45;98175.28;6041145;23;20027;-82
2021/12/04 01:05:53;;;;;;;211.10;71.95;;;-4.80;99.90;;;-5.12;68.95;98163.88;6064565;23;20383;-82
2021/12/04 01:08:19;;;;;;;222.18;77.68;;;-4.80;99.90;;;-5.16;69.29;98158.19;6064213;23;20479;-82
2021/12/04 01:10:47;;;;;;;216.55;75.82;;;-4.80;99.90;;;-5.12;68.69;98159.41;6041722;23;20038;-82
2021/12/04 01:13:15;;;;;;;207.00;74.63;;;-4.80;99.90;;;-5.14;68.26;98147.38;6017874;23;20019;-82
2021/12/04 01:15:43;;;;;;;225.65;80.32;;;-4.80;99.90;;;-5.13;69.35;98149.03;6041566;23;20022;-82
2021/12/04 01:18:10;;;;;;;217.70;75.22;;;-4.80;99.90;;;-5.18;69.41;98144.31;6041523;23;20028;-82
2021/12/04 01:20:38;;;;;;;226.55;78.43;;;-4.80;99.90;;;-5.22;69.63;98147.53;6041328;23;20103;-82
2021/12/04 01:23:06;;;;;;;233.88;77.72;;;-4.90;99.90;;;-5.23;69.59;98152.00;6042024;23;20042;-82
2021/12/04 01:25:36;;;;;;;217.27;76.13;;;-4.80;99.90;;;-5.23;69.97;98159.94;6041202;23;20071;-82
2021/12/04 01:28:04;;;;;;;216.90;70.78;;;-4.80;99.90;;;-5.22;69.88;98158.91;6019183;23;20545;-82
2021/12/04 01:30:31;;;;;;;200.50;64.93;;;-4.80;99.90;;;-5.25;69.55;98156.66;6040300;23;20022;-82
2021/12/04 01:32:58;;;;;;;158.32;59.28;;;-4.80;99.90;;;-5.32;68.93;98153.94;6040968;23;20464;-82
2021/12/04 01:35:25;;;;;;;163.57;57.05;;;-4.80;99.90;;;-5.37;68.67;98150.22;6040344;23;20339;-82
2021/12/04 01:37:51;;;;;;;153.10;52.85;;;-4.90;99.90;;;-5.45;68.09;98156.44;6040542;23;20386;-82
2021/12/04 01:40:18;;;;;;;134.40;48.58;;;-5.00;99.90;;;-5.41;67.92;98156.91;6042335;23;20019;-82
2021/12/04 01:42:45;;;;;;;106.65;41.42;;;-5.00;99.90;;;-5.48;67.91;98154.97;6040572;23;20448;-82
2021/12/04 01:45:12;;;;;;;132.25;48.65;;;-5.00;99.90;;;-5.51;68.08;98147.44;6040351;23;20031;-82
2021/12/04 01:47:38;;;;;;;159.55;57.15;;;-5.10;99.90;;;-5.55;67.92;98143.53;6016985;23;20023;-82
2021/12/04 01:50:06;;;;;;;152.32;54.10;;;-5.10;99.90;;;-5.61;68.06;98140.81;6040948;23;20019;-82
2021/12/04 01:52:33;;;;;;;157.50;64.22;;;-5.10;99.90;;;-5.63;68.37;98140.19;6016803;23;20051;-82
2021/12/04 01:55:00;;;;;;;229.02;75.45;;;-5.20;99.90;;;-5.62;68.60;98134.72;6064305;23;20019;-82
2021/12/04 01:57:28;;;;;;;186.20;66.03;;;-5.20;99.90;;;-5.63;68.82;98133.06;6016731;23;20023;-82
2021/12/04 01:59:55;;;;;;;172.77;67.80;;;-5.20;99.90;;;-5.60;69.35;98129.22;6041315;23;20412;-82
2021/12/04 02:02:22;;;;;;;186.23;64.35;;;-5.20;99.90;;;-5.64;68.73;98123.53;6017801;23;20450;-83
2021/12/04 02:04:48;;;;;;;177.20;64.60;;;-5.20;99.90;;;-5.65;68.70;98116.56;6040861;23;20351;-82
2021/12/04 02:07:16;;;;;;;189.27;63.72;;;-5.20;99.90;;;-5.67;68.12;98119.44;6040763;23;20015;-82
2021/12/04 02:09:43;;;;;;;164.93;57.10;;;-5.20;99.90;;;-5.65;67.99;98118.41;6017282;23;20019;-83
2021/12/04 02:12:11;;;;;;;155.07;50.97;;;-5.20;99.90;;;-5.70;68.00;98108.41;6041122;23;20023;-82
2021/12/04 02:14:40;;;;;;;160.88;57.92;;;-5.30;99.90;;;-5.70;68.23;98103.94;6016266;23;20511;-82
2021/12/04 02:17:08;;;;;;;162.50;58.25;;;-5.30;99.90;;;-5.75;67.95;98101.06;6040283;23;20362;-82
2021/12/04 02:19:35;;;;;;;183.88;65.32;;;-5.30;99.90;;;-5.77;68.25;98094.31;6039646;23;20030;-82
2021/12/04 02:22:02;;;;;;;155.25;63.15;;;-5.30;99.90;;;-5.81;68.42;98088.56;6040003;23;20023;-82
2021/12/04 02:24:29;;;;;;;168.05;60.55;;;-5.30;99.90;;;-5.79;68.42;98088.41;6040461;23;20029;-82
2021/12/04 02:26:55;;;;;;;178.70;61.67;;;-5.30;99.90;;;-5.80;68.67;98078.81;6017712;23;20078;-82
2021/12/04 02:29:22;;;;;;;157.73;56.47;;;-5.30;99.90;;;-5.82;68.09;98079.03;6018040;23;20347;-82
2021/12/04 02:31:55;;;;;;;172.25;64.25;;;-5.30;99.90;;;-5.84;68.41;98077.56;6041641;23;20174;-82
2021/12/04 02:34:28;;;;;;;188.80;62.88;;;-5.30;99.90;;;-5.84;67.71;98075.75;6027291;23;20447;-83
2021/12/04 02:36:57;;;;;;;158.23;57.03;;;-5.40;99.90;;;-5.84;68.11;98082.84;6042559;23;20094;-83
2021/12/04 02:39:31;;;;;;;129.75;45.95;;;-5.40;99.90;;;-5.85;67.96;98074.13;6043257;23;20019;-82
2021/12/04 02:41:57;;;;;;;122.38;50.53;;;-5.40;99.90;;;-5.95;67.93;98073.63;6053794;23;20047;-82
2021/12/04 02:44:31;;;;;;;135.70;51.55;;;-5.50;99.90;;;-5.97;68.21;98076.44;6018420;23;20051;-82
2021/12/04 02:46:57;;;;;;;115.75;46.70;;;-5.50;99.90;;;-5.94;67.75;98073.44;6053336;23;20090;-82
2021/12/04 02:49:23;;;;;;;130.23;46.92;;;-5.50;99.90;;;-5.94;67.67;98065.50;6043267;23;20015;-82
2021/12/04 02:51:49;;;;;;;110.82;42.95;;;-5.50;99.90;;;-5.96;67.82;98072.78;6043767;23;20639;-82
2021/12/04 02:54:15;;;;;;;120.20;45.22;;;-5.50;99.90;;;-5.99;68.13;98073.16;6042736;23;20414;-82
2021/12/04 02:56:45;;;;;;;96.50;37.83;;;-5.50;99.90;;;-6.00;67.83;98058.34;6040256;23;20042;-82
2021/12/04 02:59:12;;;;;;;110.13;38.80;;;-5.60;99.90;;;-6.04;68.04;98057.06;6043154;23;20098;-82
2021/12/04 03:01:40;;;;;;;122.88;47.63;;;-5.50;99.90;;;-6.05;68.09;98059.91;6042337;23;20057;-82
2021/12/04 03:04:11;;;;;;;137.18;55.42;;;-5.60;99.90;;;-6.02;67.98;98055.06;6043541;23;20031;-82
2021/12/04 03:06:39;;;;;;;149.95;57.90;;;-5.60;99.90;;;-6.00;68.48;98047.78;6042708;23;20034;-82
2021/12/04 03:09:05;;;;;;;144.77;52.80;;;-5.60;99.90;;;-5.97;68.50;98050.03;6041963;23;20163;-82
2021/12/04 03:11:31;;;;;;;132.75;52.53;;;-5.50;99.90;;;-5.93;68.23;98051.28;6042166;23;20023;-82
2021/12/04 03:13:57;;;;;;;150.82;41.72;;;-5.50;99.90;;;-5.93;68.00;98043.34;6043402;23;20035;-81
2021/12/04 03:16:24;;;;;;;121.47;42.88;;;-5.50;99.90;;;-5.93;68.03;98051.28;6042637;23;20042;-81
2021/12/04 03:18:50;;;;;;;106.22;41.40;;;-5.50;99.90;;;-5.92;68.59;98042.34;6042656;23;20019;-82
2021/12/04 03:21:16;;;;;;;134.55;51.95;;;-5.50;99.90;;;-5.84;68.52;98041.41;6042334;23;20030;-82
2021/12/04 03:23:52;;;;;;;136.57;48.90;;;-5.50;99.90;;;-5.83;68.13;98039.56;6042546;23;20057;-82
2021/12/04 03:26:19;;;;;;;133.15;53.05;;;-5.50;99.90;;;-5.81;68.36;98040.22;6056686;23;20018;-82
2021/12/04 03:28:46;;;;;;;147.27;55.08;;;-5.40;99.90;;;-5.84;68.24;98033.47;6042170;23;20035;-82
2021/12/04 03:31:17;;;;;;;116.03;42.42;;;-5.40;99.90;;;-5.82;68.71;98030.66;6041108;23;20034;-82
2021/12/04 03:42:01;;;;;;;91.65;35.88;;;-5.30;99.90;;;-5.78;68.08;98037.19;6074380;23;20022;-82
2021/12/04 03:44:27;;;;;;;93.85;35.65;;;-5.30;99.90;;;-5.77;68.85;98036.19;6015241;23;20117;-82
2021/12/04 03:46:53;;;;;;;109.97;42.97;;;-5.30;99.90;;;-5.77;68.76;98026.44;6040614;23;20491;-82
2021/12/04 03:49:20;;;;;;;105.07;40.53;;;-5.30;99.90;;;-5.74;68.68;98033.19;6040664;23;20042;-82
2021/12/04 03:51:47;;;;;;;107.97;43.08;;;-5.30;99.90;;;-5.72;68.57;98029.34;6015562;23;20014;-82
2021/12/04 03:54:13;;;;;;;114.07;45.75;;;-5.30;99.90;;;-5.64;68.45;98022.31;6039108;23;20054;-82
2021/12/04 03:56:39;;;;;;;118.35;46.63;;;-5.20;99.90;;;-5.64;68.42;98024.94;6039571;23;20427;-82
2021/12/04 03:59:05;;;;;;;111.25;45.20;;;-5.20;99.90;;;-5.61;68.87;98020.09;6040152;23;20023;-83
2021/12/04 04:01:31;;;;;;;112.35;48.45;;;-5.20;99.90;;;-5.58;68.45;98017.06;6039981;23;20094;-82
2021/12/04 04:03:59;;;;;;;145.23;54.60;;;-5.20;99.90;;;-5.49;68.38;98023.06;6063068;23;20383;-82
2021/12/04 04:06:26;;;;;;;135.30;53.50;;;-5.10;99.90;;;-5.43;68.10;98008.25;6040352;23;20046;-82
2021/12/04 04:08:53;;;;;;;140.57;56.17;;;-5.10;99.90;;;-5.42;67.94;98012.50;6016464;23;20034;-82
2021/12/04 04:11:20;;;;;;;123.18;48.55;;;-5.10;99.90;;;-5.45;67.96;98011.88;6039637;23;20090;-82
2021/12/04 04:13:46;;;;;;;133.43;52.70;;;-5.00;99.90;;;-5.48;67.92;98011.47;6039917;23;20095;-82
2021/12/04 04:16:12;;;;;;;132.82;50.85;;;-5.00;99.90;;;-5.45;68.13;98017.16;6041568;23;20090;-82
2021/12/04 04:18:39;;;;;;;132.75;50.45;;;-5.10;99.90;;;-5.50;67.76;98011.63;6040844;23;20015;-82
2021/12/04 04:21:05;;;;;;;132.52;48.13;;;-5.00;99.90;;;-5.54;67.47;98010.41;6063573;23;20023;-82
2021/12/04 04:23:30;;;;;;;114.63;47.47;;;-5.10;99.90;;;-5.58;67.70;98003.03;6043162;23;20109;-82
2021/12/04 04:25:57;;;;;;;132.00;47.97;;;-5.10;99.90;;;-5.61;67.72;98004.22;6042543;23;20074;-82
2021/12/04 04:28:23;;;;;;;118.63;45.75;;;-5.10;99.90;;;-5.61;67.65;97996.31;6018062;23;20075;-82
2021/12/04 04:30:49;;;;;;;144.45;53.75;;;-5.10;99.90;;;-5.65;67.87;98005.59;6066667;23;20050;-82
2021/12/04 04:33:15;;;;;;;146.80;58.35;;;-5.20;99.90;;;-5.65;68.31;97994.22;6065782;23;20078;-82
2021/12/04 04:35:45;;;;;;;138.15;54.88;;;-5.20;99.90;;;-5.62;68.21;97991.19;6042407;23;20553;-82
2021/12/04 05:10:14;;;;;;;102.88;35.03;;;-5.30;99.90;;;-5.77;67.61;97943.75;6055935;23;20547;-81
2021/12/04 05:11:07;;;;;;;104.32;44.67;;;-5.30;99.90;;;-5.79;67.34;97936.00;6076067;23;20372;-82
2021/12/04 05:13:33;;;;;;;119.30;44.60;;;-5.30;99.90;;;-5.79;67.08;97929.91;6057861;23;20093;-82
2021/12/04 05:16:10;;;;;;;103.13;41.30;;;-5.40;99.90;;;-5.79;66.80;97925.44;6043016;23;20327;-81
2021/12/04 05:18:38;;;;;;;126.57;48.33;;;-5.40;99.90;;;-5.83;66.91;97921.53;6054171;23;20206;-82
2021/12/04 05:21:05;;;;;;;145.60;56.10;;;-5.40;99.90;;;-5.91;66.81;97919.84;6042899;23;20043;-81
2021/12/04 05:23:40;;;;;;;150.18;58.03;;;-5.40;99.90;;;-5.90;66.84;97918.84;6042156;23;20043;-82
2021/12/04 05:26:08;;;;;;;141.15;56.58;;;-5.40;99.90;;;-5.86;66.81;97914.00;6052780;23;20086;-81
2021/12/04 05:28:34;;;;;;;147.38;59.05;;;-5.40;99.90;;;-5.80;66.57;97922.97;6042183;23;20019;-81
2021/12/04 05:31:00;;;;;;;115.70;49.22;;;-5.40;99.90;;;-5.80;66.24;97920.34;6042501;23;20085;-81
2021/12/04 05:33:26;;;;;;;116.03;46.33;;;-5.40;99.90;;;-5.80;66.61;97913.25;6044441;23;20019;-81
2021/12/04 05:35:52;;;;;;;149.00;51.00;;;-5.40;99.90;;;-5.75;66.20;97916.13;6043098;23;20030;-81
2021/12/04 05:38:18;;;;;;;121.90;47.33;;;-5.40;99.90;;;-5.73;66.20;97910.63;6019059;23;20029;-80
2021/12/04 05:40:44;;;;;;;98.88;40.65;;;-5.30;99.90;;;-5.72;66.02;97914.94;6019081;23;20046;-80
2021/12/04 05:43:11;;;;;;;88.53;36.65;;;-5.30;99.90;;;-5.71;66.01;97909.44;6067338;23;20435;-81
2021/12/04 05:45:52;;;;;;;89.97;35.10;;;-5.30;99.90;;;-5.69;66.00;97907.44;6020545;23;20366;-81
2021/12/04 05:48:31;;;;;;;85.03;32.20;;;-5.30;99.90;;;-5.65;65.77;97907.03;6056520;23;20038;-81
2021/12/04 05:56:14;;;;;;;106.20;39.65;;;-5.10;99.90;;;-5.63;66.37;97897.09;6054488;23;20018;-82
2021/12/04 05:58:40;;;;;;;79.00;30.88;;;-5.10;99.90;;;-5.61;66.08;97887.16;6044940;23;20038;-82
2021/12/04 06:01:06;;;;;;;92.75;33.95;;;-5.10;99.90;;;-5.60;66.34;97880.84;6068342;23;20019;-83
2021/12/04 06:03:33;;;;;;;94.40;40.20;;;-5.10;99.90;;;-5.58;66.26;97884.94;6044371;23;20014;-82
2021/12/04 06:05:59;;;;;;;106.22;43.67;;;-5.00;99.90;;;-5.60;66.65;97876.38;6018273;23;20265;-83
2021/12/04 06:08:26;;;;;;;121.75;49.00;;;-5.00;99.90;;;-5.56;66.81;97882.13;6040782;23;20090;-83
2021/12/04 06:10:52;;;;;;;188.95;65.53;;;-5.00;99.90;;;-5.42;66.68;97872.44;6042540;23;20292;-82
2021/12/04 06:13:19;;;;;;;654.92;223.60;;;-4.90;99.90;;;-5.33;66.56;97874.75;6020037;23;20102;-82
2021/12/04 06:15:45;;;;;;;516.55;169.07;;;-4.90;99.90;;;-5.22;66.64;97872.56;6044097;23;20018;-82
2021/12/04 06:18:11;;;;;;;293.88;93.78;;;-4.80;99.90;;;-5.14;66.34;97864.47;6044155;23;20398;-82
2021/12/04 06:23:22;;;;;;;134.00;45.92;;;-4.60;99.90;;;-4.99;66.49;97859.03;6056736;23;20061;-83
2021/12/04 06:25:48;;;;;;;98.28;36.47;;;-4.60;99.90;;;-4.98;66.29;97850.09;6043129;23;20098;-82
2021/12/04 06:28:14;;;;;;;83.50;34.95;;;-4.50;99.90;;;-4.87;66.60;97857.47;6021076;23;20318;-83
2021/12/04 06:30:42;;;;;;;90.40;33.75;;;-4.40;99.90;;;-4.75;66.42;97861.16;6068554;23;20025;-82
2021/12/04 06:33:09;;;;;;;80.13;32.05;;;-4.40;99.90;;;-4.72;66.04;97857.31;6019821;23;20449;-82
2021/12/04 06:35:39;;;;;;;69.50;29.48;;;-4.30;99.90;;;-4.65;66.54;97858.97;6016425;23;20019;-82
2021/12/04 06:38:05;;;;;;;72.30;29.23;;;-4.30;99.90;;;-4.54;66.18;97854.09;6042319;23;20205;-82
2021/12/04 06:40:31;;;;;;;98.45;37.20;;;-4.10;99.90;;;-4.49;65.95;97856.97;6016273;23;20041;-82
2021/12/04 06:42:59;;;;;;;77.25;29.77;;;-4.10;99.90;;;-4.39;66.18;97854.75;6041322;23;20203;-82
2021/12/04 06:45:26;;;;;;;68.22;29.52;;;-4.00;99.90;;;-4.32;66.35;97854.78;6043034;23;20093;-82
2021/12/04 06:47:56;;;;;;;92.28;37.90;;;-3.90;99.90;;;-4.28;66.14;97851.50;6043072;23;20070;-82
2021/12/04 06:50:41;;;;;;;125.07;49.05;;;-3.80;99.90;;;-4.21;66.42;97848.88;6052925;23;20015;-82
2021/12/04 06:53:25;;;;;;;112.85;43.88;;;-3.80;99.90;;;-4.17;66.10;97850.91;6058851;23;20018;-82
2021/12/04 06:55:54;;;;;;;207.00;72.28;;;-3.70;99.90;;;-4.11;65.90;97859.06;6074089;23;20452;-82
2021/12/04 06:58:21;;;;;;;127.00;49.53;;;-3.60;99.90;;;-4.07;66.02;97855.81;6042896;23;20042;-82
2021/12/04 07:00:47;;;;;;;119.80;45.70;;;-3.60;99.90;;;-4.05;65.97;97852.94;6040813;23;20019;-82
2021/12/04 07:03:13;;;;;;;126.30;51.08;;;-3.50;99.90;;;-3.94;65.78;97855.00;6039881;23;20018;-82
2021/12/04 07:05:39;;;;;;;118.75;45.28;;;-3.50;99.90;;;-3.83;65.64;97853.56;6041236;23;20447;-82
2021/12/04 07:08:05;;;;;;;116.18;40.35;;;-3.40;99.90;;;-3.78;65.77;97854.56;6063736;23;20530;-82
2021/12/04 07:10:33;;;;;;;97.35;40.33;;;-3.40;99.90;;;-3.68;65.68;97856.00;6066964;23;20439;-82
2021/12/04 07:13:01;;;;;;;108.60;40.72;;;-3.30;99.90;;;-3.62;65.55;97855.97;6021296;23;20023;-82
2021/12/04 07:15:27;;;;;;;95.25;38.67;;;-3.20;99.90;;;-3.55;65.82;97864.75;6042553;23;20019;-82
2021/12/04 07:17:53;;;;;;;110.53;43.33;;;-3.20;99.90;;;-3.45;65.45;97863.50;6017700;23;20025;-81
2021/12/04 07:20:20;;;;;;;125.80;46.85;;;-3.10;99.90;;;-3.35;65.28;97863.91;6022008;23;20022;-81
2021/12/04 07:22:49;;;;;;;115.60;50.60;;;-3.00;99.90;;;-3.22;65.67;97863.88;6072609;23;20022;-81
2021/12/04 07:25:18;;;;;;;113.90;48.70;;;-2.90;99.90;;;-3.08;65.55;97857.50;6017694;23;20482;-80
2021/12/04 07:27:46;;;;;;;139.68;55.20;;;-2.70;99.90;;;-2.95;65.53;97853.16;6062569;23;20039;-79
2021/12/04 07:30:12;;;;;;;111.18;46.85;;;-2.60;99.90;;;-2.79;65.30;97857.19;6038971;23;20023;-79
2021/12/04 07:32:39;;;;;;;230.95;55.28;;;-2.40;99.90;;;-2.69;65.47;97854.91;6037544;23;20023;-79
2021/12/04 07:35:06;;;;;;;128.80;54.63;;;-2.30;99.90;;;-2.57;65.79;97847.06;6035749;23;20023;-80
2021/12/04 07:37:32;;;;;;;131.18;53.03;;;-2.20;99.90;;;-2.46;65.51;97835.78;6035493;23;20014;-79
2021/12/04 07:39:58;;;;;;;126.28;51.65;;;-2.00;99.90;;;-2.33;65.59;97850.81;6013349;23;20110;-79
2021/12/04 07:42:24;;;;;;;131.18;53.70;;;-1.90;99.90;;;-2.23;65.11;97840.53;6036622;23;20019;-79
2021/12/04 07:44:50;;;;;;;126.38;51.58;;;-1.70;99.90;;;-2.15;65.40;97839.47;6035632;23;20034;-79
2021/12/04 07:47:20;;;;;;;124.18;50.47;;;-1.60;99.90;;;-2.06;65.19;97839.00;6047751;23;20455;-79
2021/12/04 07:49:46;;;;;;;134.43;56.08;;;-1.50;99.90;;;-1.93;65.12;97831.91;6036856;23;20046;-79
2021/12/04 07:52:12;;;;;;;143.40;55.95;;;-1.40;99.90;;;-1.80;64.91;97834.47;6061453;23;20098;-79
2021/12/04 07:54:38;;;;;;;118.30;50.47;;;-1.30;99.90;;;-1.72;64.96;97831.53;6036044;23;20022;-79
2021/12/04 07:57:05;;;;;;;119.13;48.58;;;-1.30;99.90;;;-1.59;64.91;97828.75;6034184;23;20093;-79
2021/12/04 07:59:34;;;;;;;125.40;50.88;;;-1.10;99.90;;;-1.46;64.87;97819.03;6037907;23;20039;-79
2021/12/04 08:02:00;;;;;;;122.03;48.95;;;-1.00;99.90;;;-1.31;65.12;97811.50;6037955;23;20029;-79
2021/12/04 08:04:27;;;;;;;114.80;48.72;;;-0.90;99.90;;;-1.15;64.51;97818.06;6038877;23;20058;-79
2021/12/04 08:06:53;;;;;;;137.68;53.42;;;-0.70;99.90;;;-1.05;64.71;97815.69;6039877;23;20026;-79
2021/12/04 08:09:19;;;;;;;144.48;59.22;;;-0.60;99.90;;;-0.96;64.69;97816.22;6015068;23;20074;-79
2021/12/04 08:11:46;;;;;;;135.10;56.78;;;-0.40;99.90;;;-0.80;64.92;97809.47;6038034;23;20462;-79
2021/12/04 08:14:12;;;;;;;145.65;55.30;;;-0.30;99.90;;;-0.56;64.42;97818.34;6038220;23;20018;-79
2021/12/04 08:16:38;;;;;;;154.13;62.17;;;-0.10;99.90;;;-0.50;64.56;97818.28;6061790;23;20098;-79
2021/12/04 08:19:04;;;;;;;140.70;61.30;;;0.00;99.90;;;-0.42;64.62;97819.81;6038247;23;20427;-79
2021/12/04 08:21:30;;;;;;;121.35;56.95;;;0.10;99.90;;;-0.33;64.21;97813.13;6037563;23;20022;-79
2021/12/04 08:23:56;;;;;;;133.07;56.08;;;0.20;99.90;;;-0.23;64.13;97808.06;6036184;23;20592;-79
2021/12/04 08:26:23;;;;;;;127.80;54.65;;;0.30;99.90;;;-0.17;64.00;97798.31;6061103;23;20022;-79
2021/12/04 08:28:50;;;;;;;136.25;55.17;;;0.30;99.90;;;-0.17;63.83;97793.00;6061059;23;20121;-79
2021/12/04 08:31:16;;;;;;;125.38;56.85;;;0.30;99.90;;;-0.15;63.59;97793.56;6037572;23;20030;-79
2021/12/04 08:33:43;;;;;;;118.20;56.42;;;0.40;99.90;;;-0.12;63.72;97801.09;6037747;23;20423;-79
2021/12/04 08:36:08;;;;;;;131.23;55.75;;;0.30;99.90;;;-0.16;63.48;97797.28;6014257;23;20023;-79
2021/12/04 08:38:35;;;;;;;121.53;55.53;;;0.30;99.90;;;-0.16;63.23;97799.13;6048233;23;20094;-79
2021/12/04 08:41:03;;;;;;;122.15;57.05;;;0.30;99.90;;;-0.24;62.84;97793.09;6040104;23;20406;-79
2021/12/04 08:43:29;;;;;;;130.98;53.28;;;0.30;99.90;;;-0.22;62.75;97801.66;6039830;23;20027;-78
2021/12/04 08:45:59;;;;;;;121.00;54.10;;;0.30;99.90;;;-0.26;62.86;97797.00;6039110;23;20026;-78
2021/12/04 08:48:27;;;;;;;132.93;56.42;;;0.20;99.90;;;-0.24;63.22;97802.94;6072725;23;20107;-79
2021/12/04 08:50:52;;;;;;;140.85;56.58;;;0.20;99.90;;;-0.19;62.98;97796.94;6063254;23;20019;-78
2021/12/04 08:53:18;;;;;;;125.47;56.78;;;0.30;99.90;;;-0.12;63.46;97798.44;6040055;23;20106;-78
2021/12/04 08:55:46;;;;;;;122.85;54.22;;;0.30;99.90;;;-0.06;63.30;97796.72;6039911;23;20121;-79
2021/12/04 08:58:13;;;;;;;127.40;58.22;;;0.30;99.90;;;-0.01;63.30;97794.16;6062719;23;20333;-78
2021/12/04 09:00:52;;;;;;;129.43;55.67;;;0.40;99.90;;;0.07;63.26;97785.00;6039100;23;20022;-79
2021/12/04 09:03:35;;;;;;;117.28;55.00;;;0.60;99.90;;;0.22;63.44;97783.50;6049848;23;20498;-79
2021/12/04 09:06:02;;;;;;;120.85;54.80;;;0.70;99.90;;;0.37;63.71;97784.91;6024909;23;20343;-79
2021/12/04 09:08:29;;;;;;;122.90;54.50;;;0.80;99.90;;;0.50;63.52;97789.19;6041838;23;20439;-79
2021/12/04 09:10:57;;;;;;;123.63;55.15;;;0.90;99.90;;;0.63;63.25;97780.94;6017912;23;20050;-79
2021/12/04 09:13:24;;;;;;;128.57;56.47;;;1.00;99.90;;;0.69;63.60;97781.84;6039727;23;20065;-79
2021/12/04 09:15:50;;;;;;;131.35;56.63;;;1.10;99.90;;;0.75;63.65;97772.91;6063989;23;20019;-79
2021/12/04 09:18:16;;;;;;;120.90;59.40;;;1.20;99.90;;;0.83;63.38;97764.53;6039959;23;20023;-78
2021/12/04 09:20:42;;;;;;;118.93;57.85;;;1.30;99.90;;;0.93;62.82;97769.28;6040083;23;20046;-79
2021/12/04 09:23:14;;;;;;;116.88;54.42;;;1.50;99.90;;;1.09;62.90;97760.50;6066313;23;20414;-79
2021/12/04 09:25:44;;;;;;;98.60;46.13;;;1.60;99.90;;;1.26;63.16;97753.34;6053062;23;20023;-79
2021/12/04 09:28:22;;;;;;;110.40;47.90;;;1.70;99.90;;;1.43;63.19;97749.94;6041319;23;20154;-79
2021/12/04 09:31:19;;;;;;;104.43;53.85;;;1.90;99.90;;;1.53;62.76;97744.75;6029391;23;20022;-79
2021/12/04 09:34:10;;;;;;;146.43;60.92;;;2.00;99.90;;;1.71;62.98;97746.41;6059145;23;20086;-79
2021/12/04 10:18:02;;;;;;;;;;;3.90;99.90;;;3.32;55.19;97676.72;6048561;23;20101;-79
2021/12/04 10:20:46;;;;;;;139.15;60.75;;;3.90;99.90;;;3.31;55.36;97680.44;6053140;23;20388;-79
2021/12/04 10:34:16;;;;;;;112.80;50.05;;;3.40;99.90;;;3.06;55.75;97671.09;6040484;23;20331;-79
2021/12/04 10:36:42;;;;;;;90.13;43.80;;;3.40;99.90;;;3.01;55.85;97673.72;6036870;23;20074;-79
2021/12/04 10:39:09;;;;;;;103.35;41.90;;;3.30;99.90;;;2.97;56.05;97664.56;6059717;23;20022;-79
2021/12/04 10:41:39;;;;;;;93.78;39.95;;;3.30;99.90;;;2.98;56.15;97652.81;6061799;23;20515;-79
2021/12/04 10:44:16;;;;;;;103.88;46.80;;;3.30;99.90;;;3.00;56.16;97651.50;6038004;23;20455;-79
2021/12/04 10:47:13;;;;;;;441.77;212.27;;;3.30;99.90;;;3.00;55.76;97650.66;6060857;23;20069;-79
2021/12/04 10:58:39;;;;;;;227.95;85.25;;;3.70;99.90;;;3.37;55.81;97631.19;6042261;23;20050;-79
2021/12/04 11:01:36;;;;;;;540.03;211.00;;;3.80;99.90;;;3.53;56.85;97621.38;6061125;23;20026;-79
2021/12/04 11:04:23;;;;;;;189.40;72.25;;;3.90;99.90;;;3.68;56.01;97619.63;6042763;23;20042;-79
2021/12/04 11:07:17;;;;;;;146.32;61.47;;;4.10;99.90;;;3.90;56.25;97607.97;6070219;23;20348;-79
2021/12/04 11:26:41;;;;;;;222.50;101.55;;;5.10;99.90;;;5.02;54.00;97569.94;6039977;23;20050;-79
2021/12/04 11:37:34;;;;;;;163.02;67.22;;;6.40;99.90;;;6.41;50.02;97567.81;6019597;23;20027;-79
2021/12/04 11:43:03;;;;;;;99.55;38.45;;;7.00;99.60;;;6.82;47.37;97554.94;6048697;23;20357;-78
2021/12/04 11:46:02;;;;;;;381.77;153.18;;;7.30;98.20;;;6.84;45.70;97563.53;6069025;23;20031;-78
2021/12/04 11:48:37;;;;;;;247.70;91.95;;;7.40;96.60;;;6.96;46.85;97557.78;6050671;23;20094;-79
2021/12/04 11:51:10;;;;;;;226.98;89.20;;;7.50;97.00;;;7.00;47.16;97553.47;6070335;23;20022;-79
2021/12/04 11:53:36;;;;;;;244.82;96.72;;;7.60;96.90;;;7.07;45.97;97551.25;6059599;23;20510;-79
2021/12/04 11:56:02;;;;;;;102.32;48.45;;;7.60;96.30;;;6.91;44.33;97541.66;6035206;23;20530;-79
2021/12/04 11:58:33;;;;;;;140.90;52.38;;;7.60;94.30;;;6.82;44.08;97538.75;6034914;23;20597;-79
2021/12/04 12:01:09;;;;;;;220.43;67.60;;;7.50;93.70;;;6.73;42.86;97530.44;6044293;23;20070;-79
2021/12/04 12:03:36;;;;;;;292.50;95.10;;;7.40;92.90;;;6.73;43.00;97530.44;6049587;23;20049;-79
2021/12/04 12:06:10;;;;;;;306.30;93.03;;;7.30;92.60;;;6.66;41.97;97526.47;6038792;23;20426;-79
2021/12/04 12:08:45;;;;;;;295.05;87.07;;;7.30;91.90;;;6.57;42.23;97518.16;6039458;23;20086;-79
2021/12/04 12:11:24;;;;;;;178.52;67.28;;;7.20;91.50;;;6.54;42.48;97518.72;6048232;23;20421;-80
2021/12/04 12:13:55;;;;;;;250.50;121.15;;;7.10;91.80;;;6.52;42.97;97502.84;6087886;23;20023;-79
2021/12/04 12:16:33;;;;;;;70.15;37.22;;;7.10;92.00;;;6.50;43.21;97505.00;6025856;23;20050;-79
2021/12/04 12:19:07;;;;;;;128.40;81.75;;;7.00;91.90;;;6.58;43.37;97505.50;6040675;23;20023;-79
2021/12/04 12:27:33;;;;;;;61.60;31.58;;;7.00;90.70;;;6.41;40.80;97495.09;6040427;23;20046;-79
2021/12/04 12:36:03;;;;;;;48.05;23.17;;;6.60;89.80;;;6.07;41.53;97487.72;6046797;23;20038;-79
2021/12/04 12:38:29;;;;;;;54.97;27.73;;;6.50;90.30;;;6.06;41.84;97488.81;6075452;23;20478;-79
2021/12/04 12:41:08;;;;;;;36.83;15.80;;;6.40;90.40;;;6.00;41.26;97479.94;6088021;23;20022;-81
2021/12/04 12:43:41;;;;;;;40.40;19.00;;;6.30;89.30;;;5.91;40.92;97486.16;6056504;23;20027;-82
2021/12/04 12:46:08;;;;;;;35.30;17.33;;;6.30;89.10;;;5.88;41.36;97482.94;6067721;23;20026;-81
2021/12/04 12:48:54;;;;;;;131.57;56.67;;;6.20;88.90;;;5.92;40.97;97475.09;6044286;23;20046;-80
2021/12/04 12:51:33;;;;;;;166.82;73.43;;;6.20;89.50;;;5.88;41.65;97476.75;6079956;23;20122;-81